CSUN Campus Station - National Weather Service Data Page - PST Time




                Date      RH     Dew  Seasonal     Current   Max Air   Min Air    Wind    Wind    Wind    Gust     Bar    Rain
                Time       %   Point      Rain    Air Temp     Since     Since   Speed    Gust     Dir     Dir   Press   Total
                               Deg F    Inches       Deg F  Midnight  Midnight     MPH     MPH                      mb  Inches
------------------------------------------------------------------------------------------------------------------------------
    04/21/2014 00:00      75    53.3      6.45        61.9      83.8      52.9       0       0       0      86    1016    0.00
    04/21/2014 00:10      76    53.4      6.45        61.1      61.5      60.9       1       3      90      83    1016    0.00
    04/21/2014 00:20      75    53.7      6.45        61.4      61.7      60.9       2       4      77      78    1016    0.00
    04/21/2014 00:30      76    53.6      6.45        61.3      61.7      60.9       1       3      51      34    1016    0.00
    04/21/2014 00:40      75    53.6      6.45        61.3      61.7      60.9       2       4      48      66    1016    0.00
    04/21/2014 00:50      76    53.5      6.45        61.2      61.7      60.9       1       3      43      34    1016    0.00
    04/21/2014 01:00      76    53.5      6.45        61.1      61.7      60.9       2       3      33      47    1016    0.00
    04/21/2014 01:10      75    53.3      6.45        61.1      61.7      60.9       2       3      56      55    1016    0.00
    04/21/2014 01:20      75    52.8      6.45        60.8      61.7      60.4       1       2      65      60    1016    0.00
    04/21/2014 01:30      75    52.7      6.45        60.6      61.7      60.4       2       3      23      49    1016    0.00
    04/21/2014 01:40      75    52.7      6.45        60.5      61.7      60.3       1       3      12      33    1016    0.00
    04/21/2014 01:50      76    52.4      6.45        60.1      61.7      59.7       0       2      29      22    1016    0.00
    04/21/2014 02:00      77    52.0      6.45        59.5      61.7      59.1       0       2     298     318    1016    0.00
    04/21/2014 02:10      78    52.1      6.45        59.1      61.7      58.9       1       2      39      31    1016    0.00
    04/21/2014 02:20      77    52.2      6.45        59.2      61.7      58.9       1       3      38      23    1016    0.00
    04/21/2014 02:30      75    52.2      6.45        59.7      61.7      58.9       2       3      50      47    1016    0.00
    04/21/2014 02:40      76    52.1      6.45        59.7      61.7      58.9       1       3      26      10    1015    0.00
    04/21/2014 02:50      76    51.9      6.45        59.3      61.7      58.9       0       3     326     343    1016    0.00
    04/21/2014 03:00      78    51.4      6.45        58.4      61.7      58.0       0       1     305     335    1016    0.00
    04/21/2014 03:10      80    51.3      6.45        57.7      61.7      57.4       0       0       0     301    1015    0.00
    04/21/2014 03:20      81    51.7      6.45        57.4      61.7      57.3       0       1      44      46    1015    0.00
    04/21/2014 03:30      81    51.5      6.45        57.4      61.7      56.9       0       1     285     275    1015    0.00
    04/21/2014 03:40      81    51.2      6.45        57.0      61.7      56.8       1       2     296     329    1016    0.00
    04/21/2014 03:50      80    50.8      6.45        57.0      61.7      56.7       0       1     329     324    1015    0.00
    04/21/2014 04:00      80    50.2      6.45        56.6      61.7      55.9       0       1     344      20    1015    0.00
    04/21/2014 04:10      81    50.2      6.45        55.9      61.7      55.8       0       0       0     273    1015    0.00
    04/21/2014 04:20      82    50.1      6.45        55.7      61.7      55.5       0       0      91      92    1015    0.00
    04/21/2014 04:30      82    50.3      6.45        55.7      61.7      55.5       0       0       0      90    1015    0.00
    04/21/2014 04:40      82    50.4      6.45        55.6      61.7      55.3       0       1     287     288    1015    0.00
    04/21/2014 04:50      82    50.2      6.45        55.6      61.7      55.3       0       0       0     316    1015    0.00
    04/21/2014 05:00      82    50.0      6.45        55.4      61.7      55.2       0       0       0     330    1015    0.00
    04/21/2014 05:10      82    49.9      6.45        55.3      61.7      55.0       0       0       0     334    1015    0.00
    04/21/2014 05:20      82    49.7      6.45        55.0      61.7      54.8       0       1     338     338    1015    0.00
    04/21/2014 05:30      81    49.6      6.45        55.1      61.7      54.8       0       0     340     338    1015    0.00
    04/21/2014 05:40      81    49.3      6.45        55.1      61.7      54.8       0       0      91      91    1015    0.00
    04/21/2014 05:50      81    49.5      6.45        55.1      61.7      54.8       0       0       0      91    1016    0.00
    04/21/2014 06:00      81    49.8      6.45        55.4      61.7      54.8       0       0       0      90    1016    0.00
    04/21/2014 06:10      80    50.2      6.45        56.1      61.7      54.8       0       0       0     335    1016    0.00
    04/21/2014 06:20      77    50.6      6.45        57.3      61.7      54.8       0       0       0      39    1016    0.00
    04/21/2014 06:30      73    51.0      6.45        59.0      61.7      54.8       0       0       0     291    1016    0.00
    04/21/2014 06:40      69    51.5      6.45        61.0      62.1      54.8       0       0     284     285    1016    0.00
    04/21/2014 06:50      66    51.8      6.45        62.7      63.4      54.8       0       1      70      68    1016    0.00
    04/21/2014 07:00      66    51.7      6.45        63.2      63.5      54.8       1       3      64      69    1016    0.00
    04/21/2014 07:10      65    51.8      6.45        63.4      63.7      54.8       2       4      73      79    1016    0.00
    04/21/2014 07:20      64    52.1      6.45        64.0      64.5      54.8       2       4      80      74    1016    0.00
    04/21/2014 07:30      61    52.1      6.45        64.4      65.1      54.8       1       4      99      51    1016    0.00
    04/21/2014 07:40      60    51.5      6.45        65.1      65.6      54.8       2       4      58      79    1016    0.00
    04/21/2014 07:50      58    51.2      6.45        65.8      66.3      54.8       2       4      96      93    1016    0.00
    04/21/2014 08:00      55    50.8      6.45        67.1      67.8      54.8       1       3      74     128    1016    0.00
    04/21/2014 08:10      51    50.9      6.45        69.1      69.6      54.8       1       4     108     147    1016    0.00
    04/21/2014 08:20      52    49.9      6.45        68.8      69.6      54.8       1       4     119     188    1016    0.00
    04/21/2014 08:30      51    50.2      6.45        68.4      69.6      54.8       1       3     192     198    1016    0.00
    04/21/2014 08:40      49    50.2      6.45        69.6      70.2      54.8       1       2     149     140    1016    0.00
    04/21/2014 08:50      49    49.9      6.45        70.2      70.5      54.8       1       3     270     241    1016    0.00
    04/21/2014 09:00      43    49.6      6.45        71.6      72.2      54.8       1       2     159     169    1016    0.00
    04/21/2014 09:10      42    48.1      6.45        72.6      73.3      54.8       0       2     161     127    1016    0.00
    04/21/2014 09:20      42    48.7      6.45        72.8      73.4      54.8       2       6     173     179    1016    0.00
    04/21/2014 09:30      41    49.1      6.45        73.9      74.7      54.8       1       6     154     130    1016    0.00
    04/21/2014 09:40      36    48.2      6.45        75.2      76.0      54.8       1       4     112     123    1016    0.00
    04/21/2014 09:50      35    47.9      6.45        75.9      76.4      54.8       2       6     134     169    1016    0.00
    04/21/2014 10:00      35    47.6      6.45        76.0      76.9      54.8       3       7     144     165    1016    0.00
    04/21/2014 10:10      34    47.6      6.45        77.6      78.2      54.8       2       6     143     136    1016    0.00
    04/21/2014 10:20      31    46.4      6.45        77.8      78.5      54.8       2       5     146     172    1016    0.00
    04/21/2014 10:30      31    45.5      6.45        78.6      79.0      54.8       2       6     104     108    1016    0.00
    04/21/2014 10:40      31    45.0      6.45        78.1      79.0      54.8       3       7     150     151    1016    0.00
    04/21/2014 10:50      27    45.4      6.45        79.3      80.5      54.8       2       6     162     130    1016    0.00
    04/21/2014 11:00      27    42.8      6.45        79.9      80.7      54.8       3       7     125     116    1016    0.00
    04/21/2014 11:10      27    43.4      6.45        79.3      80.7      54.8       3       6     168     174    1016    0.00
    04/21/2014 11:20      25    42.7      6.45        79.9      80.7      54.8       3       6     160     137    1015    0.00
    04/21/2014 11:30      27    43.6      6.45        80.2      80.7      54.8       4       8     160     159    1015    0.00
    04/21/2014 11:40      24    43.9      6.45        80.4      81.6      54.8       1       7     215     219    1015    0.00
    04/21/2014 11:50      23    41.2      6.45        81.4      82.0      54.8       4       7     156     147    1015    0.00
    04/21/2014 12:00      24    41.3      6.45        81.5      82.0      54.8       4      10     148     156    1015    0.00
    04/21/2014 12:10      25    41.2      6.45        82.3      82.9      54.8       2       6     142     159    1015    0.00
    04/21/2014 12:20      23    43.1      6.45        83.2      83.8      54.8       4       8     163     167    1015    0.00
    04/21/2014 12:30      23    41.8      6.45        83.5      83.8      54.8       4      10     152     197    1015    0.00
    04/21/2014 12:40      23    41.4      6.45        83.4      84.0      54.8       5       9     107      87    1015    0.00
    04/21/2014 12:50      22    40.9      6.45        83.7      84.5      54.8       4       8     106      89    1014    0.00
    04/21/2014 13:00      21    39.5      6.45        83.9      84.5      54.8       5      11      91      49    1014    0.00
    04/21/2014 13:10      21    39.8      6.45        83.9      84.5      54.8       4       9     104      85    1014    0.00
    04/21/2014 13:20      20    40.4      6.45        84.3      84.9      54.8       4       8     113      94    1014    0.00
    04/21/2014 13:30      23    40.0      6.45        84.2      84.9      54.8       6      10     109      79    1014    0.00
    04/21/2014 13:40      21    40.0      6.45        84.6      85.2      54.8       5      10      89      85    1014    0.00
    04/21/2014 13:50      20    40.3      6.45        84.0      85.2      54.8       5       9     107      95    1014    0.00
    04/21/2014 14:00      18    39.2      6.45        84.7      85.2      54.8       4       9     109     117    1014    0.00
    04/21/2014 14:10      19    38.0      6.45        84.6      85.2      54.8       6      14      82      63    1013    0.00
    04/21/2014 14:20      18    38.2      6.45        84.8      85.3      54.8       4      11      98     106    1013    0.00
    04/21/2014 14:30      17    37.1      6.45        84.3      85.3      54.8       4      12     110      82    1013    0.00
    04/21/2014 14:40      16    35.3      6.45        84.6      85.3      54.8       5       9      99     113    1013    0.00
    04/21/2014 14:50      16    34.5      6.45        84.2      85.3      54.8       5      10     102     142    1013    0.00
    04/21/2014 15:00      17    33.7      6.45        84.0      85.3      54.8       5      11     107      89    1013    0.00
    04/21/2014 15:10      16    34.6      6.45        84.3      85.3      54.8       4      10     109     109    1013    0.00
    04/21/2014 15:20      18    34.3      6.45        83.5      85.3      54.8       5      11     118     152    1013    0.00
    04/21/2014 15:30      19    35.0      6.45        83.3      85.3      54.8       5      12      95      77    1013    0.00
    04/21/2014 15:40      20    35.1      6.45        82.3      85.3      54.8       5      10     113      81    1013    0.00
    04/21/2014 15:50      19    36.5      6.45        82.0      85.3      54.8       4      10     110      73    1013    0.00
    04/21/2014 16:00      17    33.6      6.45        81.8      85.3      54.8       4       9     112      92    1013    0.00
    04/21/2014 16:10      18    33.6      6.45        81.4      85.3      54.8       4      11      93      96    1013    0.00
    04/21/2014 16:20      22    35.7      6.45        81.0      85.3      54.8       4      10      84      95    1013    0.00
    04/21/2014 16:30      19    35.2      6.45        80.7      85.3      54.8       4      11      93      78    1012    0.00
    04/21/2014 16:40      22    35.6      6.45        80.3      85.3      54.8       4       9      95      78    1012    0.00
    04/21/2014 16:50      24    38.7      6.45        79.7      85.3      54.8       4       8      93      63    1012    0.00
    04/21/2014 17:00      24    38.2      6.45        79.3      85.3      54.8       3       9      83      69    1012    0.00
    04/21/2014 17:10      24    38.8      6.45        78.6      85.3      54.8       4       9      78      78    1012    0.00
    04/21/2014 17:20      24    37.4      6.45        77.8      85.3      54.8       5       9      81      69    1012    0.00
    04/21/2014 17:30      24    37.7      6.45        77.4      85.3      54.8       3       7      87      82    1012    0.00
    04/21/2014 17:40      26    37.7      6.45        76.8      85.3      54.8       3       7      89      81    1012    0.00
    04/21/2014 17:50      26    38.3      6.45        76.0      85.3      54.8       2       4     105      79    1012    0.00
    04/21/2014 18:00      26    38.2      6.45        75.7      85.3      54.8       2       5      83      85    1012    0.00
    04/21/2014 18:10      26    38.3      6.45        75.2      85.3      54.8       2       4      84      77    1012    0.00
    04/21/2014 18:20      27    38.4      6.45        74.7      85.3      54.8       2       5      73      70    1012    0.00
    04/21/2014 18:30      28    38.5      6.45        74.0      85.3      54.8       2       4      98      74    1012    0.00
    04/21/2014 18:40      29    38.7      6.45        73.4      85.3      54.8       3       5      80      52    1012    0.00
    04/21/2014 18:50      31    39.5      6.45        72.8      85.3      54.8       2       4      91      74    1012    0.00
    04/21/2014 19:00      34    40.8      6.45        71.8      85.3      54.8       2       6      86      75    1013    0.00
    04/21/2014 19:10      36    41.8      6.45        70.8      85.3      54.8       2       5      88      73    1013    0.00
    04/21/2014 19:20      39    42.9      6.45        69.8      85.3      54.8       3       5      87      79    1013    0.00
    04/21/2014 19:30      40    43.5      6.45        69.2      85.3      54.8       3       5      78      69    1013    0.00
    04/21/2014 19:40      41    44.0      6.45        68.7      85.3      54.8       2       4      67      46    1013    0.00
    04/21/2014 19:50      43    44.4      6.45        68.3      85.3      54.8       2       4      76      67    1013    0.00
    04/21/2014 20:00      44    44.8      6.45        68.0      85.3      54.8       2       4      73      71    1013    0.00
    04/21/2014 20:10      44    44.9      6.45        67.6      85.3      54.8       2       5      82      85    1013    0.00
    04/21/2014 20:20      45    44.7      6.45        67.1      85.3      54.8       3       7      80      73    1013    0.00
    04/21/2014 20:30      45    44.8      6.45        66.8      85.3      54.8       2       5      79      81    1013    0.00
    04/21/2014 20:40      48    45.3      6.45        66.4      85.3      54.8       0       3      79     114    1013    0.00
    04/21/2014 20:50      50    46.0      6.45        65.9      85.3      54.8       1       5      89      76    1014    0.00
    04/21/2014 21:00      51    46.5      6.45        65.4      85.3      54.8       2       4      80      78    1014    0.00
    04/21/2014 21:10      51    46.4      6.45        65.0      85.3      54.8       2       3      68      61    1014    0.00
    04/21/2014 21:20      53    46.5      6.45        64.5      85.3      54.8       2       3      68      59    1014    0.00
    04/21/2014 21:30      55    47.2      6.45        64.3      85.3      54.8       1       3      70     103    1014    0.00
    04/21/2014 21:40      56    47.5      6.45        63.9      85.3      54.8       1       3      73      83    1014    0.00
    04/21/2014 21:50      56    47.5      6.45        63.5      85.3      54.8       1       3      73      78    1014    0.00
    04/21/2014 22:00      57    47.6      6.45        63.3      85.3      54.8       2       3      75      75    1014    0.00
    04/21/2014 22:10      58    47.8      6.45        63.2      85.3      54.8       2       4      72      53    1013    0.00
    04/21/2014 22:20      59    48.0      6.45        62.9      85.3      54.8       3       5      72      84    1013    0.00
    04/21/2014 22:30      60    48.3      6.45        62.6      85.3      54.8       3       6      88     100    1013    0.00
    04/21/2014 22:40      63    48.7      6.45        61.9      85.3      54.8       3       6      88      79    1013    0.00
    04/21/2014 22:50      66    49.2      6.45        61.0      85.3      54.8       3       5      86      73    1013    0.00
    04/21/2014 23:00      68    49.1      6.45        60.2      85.3      54.8       3       6      76      85    1013    0.00
    04/21/2014 23:10      71    49.7      6.45        59.6      85.3      54.8       3       6      67      74    1013    0.00
    04/21/2014 23:20      73    50.1      6.45        59.2      85.3      54.8       4       7      79      66    1013    0.00
    04/21/2014 23:30      75    50.4      6.45        58.8      85.3      54.8       2       7      68      63    1014    0.00
    04/21/2014 23:40      76    50.8      6.45        58.5      85.3      54.8       3       5      78      92    1014    0.00
    04/21/2014 23:50      76    50.8      6.45        58.3      85.3      54.8       2       5      66      47    1014    0.00
    04/22/2014 00:00      77    50.9      6.45        58.1      85.3      54.8       2       5      62      45    1014    0.00
    04/22/2014 00:10      77    50.8      6.45        58.0      58.2      57.8       2       5      57      38    1014    0.00
    04/22/2014 00:20      78    50.8      6.45        57.7      58.2      57.5       2       5      46      50    1014    0.00
    04/22/2014 00:30      79    51.0      6.45        57.5      58.2      57.2       3       5      59      69    1014    0.00
    04/22/2014 00:40      80    51.0      6.45        57.3      58.2      57.0       2       5      72      41    1013    0.00
    04/22/2014 00:50      80    50.9      6.45        57.1      58.2      56.9       2       5      67      50    1013    0.00
    04/22/2014 01:00      81    50.9      6.45        56.9      58.2      56.7       2       6      79      78    1013    0.00
    04/22/2014 01:10      82    51.0      6.45        56.7      58.2      56.5       3       6      67      61    1013    0.00
    04/22/2014 01:20      82    51.2      6.45        56.6      58.2      56.4       2       4      59      59    1013    0.00
    04/22/2014 01:30      83    51.4      6.45        56.5      58.2      56.4       1       4      68     101    1013    0.00
    04/22/2014 01:40      84    51.6      6.45        56.5      58.2      56.3       1       5      80      96    1013    0.00
    04/22/2014 01:50      84    51.7      6.45        56.6      58.2      56.3       2       5      94      88    1013    0.00
    04/22/2014 02:00      83    51.6      6.45        56.6      58.2      56.3       2       3     128     140    1013    0.00
    04/22/2014 02:10      84    51.4      6.45        56.3      58.2      56.1       1       3     152     192    1013    0.00
    04/22/2014 02:20      85    51.6      6.45        56.2      58.2      56.0       2       5     152     168    1013    0.00
    04/22/2014 02:30      84    51.7      6.45        56.4      58.2      56.0       1       3     123     139    1013    0.00
    04/22/2014 02:40      84    51.5      6.45        56.3      58.2      55.9       2       4     152     175    1013    0.00
    04/22/2014 02:50      85    51.3      6.45        55.9      58.2      55.7       1       3     159     139    1013    0.00
    04/22/2014 03:00      84    51.4      6.45        55.9      58.2      55.7       1       3      81      72    1013    0.00
    04/22/2014 03:10      84    51.4      6.45        56.1      58.2      55.7       1       3      42      30    1013    0.00
    04/22/2014 03:20      84    51.6      6.45        56.3      58.2      55.7       2       5     112     139    1013    0.00
    04/22/2014 03:30      82    51.2      6.45        56.4      58.2      55.7       2       3      56      90    1013    0.00
    04/22/2014 03:40      82    51.2      6.45        56.5      58.2      55.7       2       5     112     177    1013    0.00
    04/22/2014 03:50      82    51.0      6.45        56.5      58.2      55.7       2       5     123     156    1013    0.00
    04/22/2014 04:00      82    50.6      6.45        56.1      58.2      55.7       3       4     152     144    1012    0.00
    04/22/2014 04:10      82    50.4      6.45        55.8      58.2      55.6       3       6     149     144    1013    0.00
    04/22/2014 04:20      82    50.3      6.45        55.8      58.2      55.5       4       6     154     163    1013    0.00
    04/22/2014 04:30      81    50.0      6.45        55.6      58.2      55.4       3       5     153     155    1012    0.00
    04/22/2014 04:40      81    49.8      6.45        55.6      58.2      55.3       2       4     135     124    1012    0.00
    04/22/2014 04:50      81    49.8      6.45        55.6      58.2      55.3       3       5     156     156    1013    0.00
    04/22/2014 05:00      81    49.7      6.45        55.5      58.2      55.3       2       3     157     152    1013    0.00
    04/22/2014 05:10      81    49.7      6.45        55.5      58.2      55.3       2       4     182     192    1013    0.00
    04/22/2014 05:20      80    49.5      6.45        55.4      58.2      55.1       2       4     161     209    1013    0.00
    04/22/2014 05:30      80    49.6      6.45        55.6      58.2      55.1       1       4     164     185    1013    0.00
    04/22/2014 05:40      80    49.5      6.45        55.7      58.2      55.1       2       5     181     179    1013    0.00
    04/22/2014 05:50      80    49.6      6.45        55.7      58.2      55.1       1       2     165     137    1013    0.00
    04/22/2014 06:00      79    49.5      6.45        55.8      58.2      55.1       2       4     169     158    1013    0.00
    04/22/2014 06:10      79    49.5      6.45        55.8      58.2      55.1       2       4     193     198    1013    0.00
    04/22/2014 06:20      79    49.6      6.45        55.8      58.2      55.1       2       4     177     187    1013    0.00
    04/22/2014 06:30      78    49.4      6.45        55.9      58.2      55.1       2       4     202     198    1013    0.00
    04/22/2014 06:40      78    49.4      6.45        56.0      58.2      55.1       2       5     218     248    1013    0.00
    04/22/2014 06:50      78    49.3      6.45        56.1      58.2      55.1       3       5     251     251    1013    0.00
    04/22/2014 07:00      78    49.4      6.45        56.1      58.2      55.1       3       5     201     195    1013    0.00
    04/22/2014 07:10      77    49.5      6.45        56.5      58.2      55.1       2       5     233     202    1013    0.00
    04/22/2014 07:20      76    49.3      6.45        56.6      58.2      55.1       3       6     226     221    1014    0.00
    04/22/2014 07:30      76    49.3      6.45        56.6      58.2      55.1       4       9     236     244    1014    0.00
    04/22/2014 07:40      76    49.3      6.45        56.8      58.2      55.1       3       6     219     270    1014    0.00
    04/22/2014 07:50      75    49.2      6.45        57.1      58.2      55.1       3       7     238     255    1014    0.00
    04/22/2014 08:00      73    49.3      6.45        57.5      58.2      55.1       3       7     258     253    1014    0.00
    04/22/2014 08:10      72    49.2      6.45        57.6      58.2      55.1       3       8     279     257    1014    0.00
    04/22/2014 08:20      70    49.3      6.45        58.4      59.2      55.1       2       5     291     318    1014    0.00
    04/22/2014 08:30      69    49.2      6.45        59.3      60.0      55.1       3       5     177     188    1014    0.00
    04/22/2014 08:40      68    48.7      6.45        59.0      60.0      55.1       1       3     183     195    1014    0.00
    04/22/2014 08:50      64    48.8      6.45        60.5      60.9      55.1       1       4      96      79    1013    0.00
    04/22/2014 09:00      63    48.9      6.45        61.1      61.7      55.1       2       4     128      96    1013    0.00
    04/22/2014 09:10      61    48.9      6.45        62.3      62.9      55.1       4       7      80      82    1013    0.00
    04/22/2014 09:20      63    49.0      6.45        62.2      63.0      55.1       3       7     107      87    1013    0.00
    04/22/2014 09:30      56    48.7      6.45        63.7      64.3      55.1       4       8      96      62    1013    0.00
    04/22/2014 09:40      56    48.5      6.45        63.9      64.9      55.1       4      10     134     159    1013    0.00
    04/22/2014 09:50      60    48.0      6.45        64.5      65.2      55.1       4       9     130     125    1013    0.00
    04/22/2014 10:00      56    48.5      6.45        64.7      66.0      55.1       4       9     106     152    1013    0.00
    04/22/2014 10:10      55    47.3      6.45        65.0      66.1      55.1       4       8     170     178    1013    0.00
    04/22/2014 10:20      49    48.0      6.45        65.3      66.6      55.1       3       6     169     180    1013    0.00
    04/22/2014 10:30      54    47.2      6.45        65.3      66.6      55.1       3       7     175      88    1013    0.00
    04/22/2014 10:40      56    48.1      6.45        64.9      66.6      55.1       3       8     154     147    1013    0.00
    04/22/2014 10:50      52    49.1      6.45        66.2      67.3      55.1       6       9     161     167    1013    0.00
    04/22/2014 11:00      54    47.6      6.45        65.6      67.3      55.1       4       9     147     183    1013    0.00
    04/22/2014 11:10      52    49.4      6.45        66.7      68.3      55.1       6      11     159     171    1013    0.00
    04/22/2014 11:20      54    48.2      6.45        66.2      68.3      55.1       4      10     160     177    1013    0.00
    04/22/2014 11:30      52    47.9      6.45        65.7      68.3      55.1       3       6     171     143    1013    0.00
    04/22/2014 11:40      50    48.4      6.45        66.7      68.3      55.1       3       8     189     219    1013    0.00
    04/22/2014 11:50      49    48.2      6.45        67.6      68.5      55.1       4       7     136      52    1013    0.00
    04/22/2014 12:00      48    48.6      6.45        68.3      69.0      55.1       5      10     187     169    1013    0.00
    04/22/2014 12:10      44    47.2      6.45        69.2      69.4      55.1       5      11     101      80    1012    0.00
    04/22/2014 12:20      44    46.1      6.45        68.8      69.4      55.1       3       8     106      45    1012    0.00
    04/22/2014 12:30      46    46.8      6.45        68.8      69.8      55.1       4       8     142     151    1012    0.00
    04/22/2014 12:40      45    46.2      6.45        70.0      70.6      55.1       4       7     101      42    1012    0.00
    04/22/2014 12:50      37    45.0      6.45        70.2      70.6      55.1       4       8      83      81    1012    0.00
    04/22/2014 13:00      36    44.0      6.45        70.4      71.5      55.1       3       6     121     220    1012    0.00
    04/22/2014 13:10      38    43.6      6.45        71.2      71.7      55.1       3       8     158     128    1012    0.00
    04/22/2014 13:20      35    43.4      6.45        71.2      71.7      55.1       4       9     101      97    1011    0.00
    04/22/2014 13:30      36    42.5      6.45        71.1      71.7      55.1       4       9      89      92    1011    0.00
    04/22/2014 13:40      41    43.4      6.45        71.2      71.9      55.1       3       7     171     124    1011    0.00
    04/22/2014 13:50      37    44.4      6.45        71.9      72.2      55.1       5      13     149     139    1011    0.00
    04/22/2014 14:00      44    46.6      6.45        70.9      72.2      55.1       7      12     132     182    1011    0.00
    04/22/2014 14:10      42    47.3      6.45        70.8      72.2      55.1       5      11     137     111    1011    0.00
    04/22/2014 14:20      43    46.9      6.45        70.2      72.2      55.1       5       9     133     126    1011    0.00
    04/22/2014 14:30      43    47.0      6.45        70.3      72.2      55.1       4      11     139     174    1011    0.00
    04/22/2014 14:40      42    46.6      6.45        69.6      72.2      55.1       4      10     156     186    1011    0.00
    04/22/2014 14:50      41    46.1      6.45        70.2      72.2      55.1       3       9     195     178    1011    0.00
    04/22/2014 15:00      39    46.1      6.45        71.5      72.2      55.1       3       7     206     227    1011    0.00
    04/22/2014 15:10      39    45.9      6.45        71.1      72.2      55.1       4       9     159     149    1011    0.00
    04/22/2014 15:20      40    45.5      6.45        71.4      72.2      55.1       3       7     116      80    1011    0.00
    04/22/2014 15:30      37    45.1      6.45        71.8      72.2      55.1       4       9     110      81    1011    0.00
    04/22/2014 15:40      39    44.7      6.45        71.2      72.2      55.1       4      10      92      90    1011    0.00
    04/22/2014 15:50      39    45.4      6.45        71.0      72.2      55.1       5      13     132     122    1010    0.00
    04/22/2014 16:00      42    45.1      6.45        69.4      72.2      55.1       4       7     137     133    1011    0.00
    04/22/2014 16:10      42    45.0      6.45        68.7      72.2      55.1       3       7     134     139    1010    0.00
    04/22/2014 16:20      42    44.6      6.45        68.7      72.2      55.1       4       7     110     125    1010    0.00
    04/22/2014 16:30      42    44.3      6.45        68.7      72.2      55.1       3       7     118      97    1010    0.00
    04/22/2014 16:40      41    43.9      6.45        68.4      72.2      55.1       3       7     101      93    1010    0.00
    04/22/2014 16:50      41    43.8      6.45        68.2      72.2      55.1       2       6     108      91    1010    0.00
    04/22/2014 17:00      40    43.8      6.45        68.9      72.2      55.1       3       7     103      81    1011    0.00
    04/22/2014 17:10      40    43.6      6.45        69.1      72.2      55.1       3       8      93     121    1011    0.00
    04/22/2014 17:20      40    43.5      6.45        68.6      72.2      55.1       3       6     104      86    1011    0.00
    04/22/2014 17:30      41    43.4      6.45        68.1      72.2      55.1       3       7      86      88    1011    0.00
    04/22/2014 17:40      44    44.0      6.45        67.5      72.2      55.1       3       6     145     167    1011    0.00
    04/22/2014 17:50      44    44.5      6.45        67.0      72.2      55.1       2       6     136     146    1011    0.00
    04/22/2014 18:00      45    44.5      6.45        66.6      72.2      55.1       2       4     145     154    1011    0.00
    04/22/2014 18:10      46    44.6      6.45        66.1      72.2      55.1       2       4     146     133    1011    0.00
    04/22/2014 18:20      48    45.0      6.45        65.8      72.2      55.1       1       4     123     117    1011    0.00
    04/22/2014 18:30      48    44.8      6.45        64.9      72.2      55.1       2       4     138     154    1011    0.00
    04/22/2014 18:40      48    44.5      6.45        64.7      72.2      55.1       1       3      98     100    1011    0.00
    04/22/2014 18:50      48    44.5      6.45        64.7      72.2      55.1       2       5      72      56    1011    0.00
    04/22/2014 19:00      50    45.1      6.45        64.4      72.2      55.1       2       4      86      72    1011    0.00
    04/22/2014 19:10      51    45.4      6.45        64.1      72.2      55.1       2       4     102      90    1011    0.00
    04/22/2014 19:20      54    45.7      6.45        63.6      72.2      55.1       2       5      96     118    1011    0.00
    04/22/2014 19:30      53    45.8      6.45        62.8      72.2      55.1       1       4      39      62    1011    0.00
    04/22/2014 19:40      53    45.3      6.45        62.9      72.2      55.1       2       4      72      67    1011    0.00
    04/22/2014 19:50      50    44.7      6.45        62.7      72.2      55.1       3       6      73      74    1011    0.00
    04/22/2014 20:00      48    44.6      6.45        62.7      72.2      55.1       3       5      68      70    1011    0.00
    04/22/2014 20:10      34    38.6      6.45        62.7      72.2      55.1       3       5      65      41    1011    0.00
    04/22/2014 20:20      24    29.9      6.45        63.7      72.2      55.1       3       8      51     346    1012    0.00
    04/22/2014 20:30      18    24.1      6.45        64.3      72.2      55.1       3       8      16     343    1012    0.00
    04/22/2014 20:40      17    18.8      6.45        64.4      72.2      55.1       4      11     347       0    1012    0.00
    04/22/2014 20:50      17    18.6      6.45        64.3      72.2      55.1       6      20     345     346    1012    0.00
    04/22/2014 21:00      17    18.6      6.45        64.4      72.2      55.1       6      15     349     331    1012    0.00
    04/22/2014 21:10      17    18.2      6.45        64.2      72.2      55.1       6      18     341     339    1012    0.00
    04/22/2014 21:20      17    17.9      6.45        64.0      72.2      55.1       7      18     344     323    1012    0.00
    04/22/2014 21:30      17    18.0      6.45        63.8      72.2      55.1       7      16     346     346    1012    0.00
    04/22/2014 21:40      18    18.5      6.45        63.7      72.2      55.1       8      21     346     333    1012    0.00
    04/22/2014 21:50      19    19.6      6.45        63.4      72.2      55.1       6      22     350     313    1012    0.00
    04/22/2014 22:00      21    21.2      6.45        63.2      72.2      55.1       7      18     354     343    1012    0.00
    04/22/2014 22:10      21    22.1      6.45        63.0      72.2      55.1       6      23     339     350    1012    0.00
    04/22/2014 22:20      20    21.9      6.45        62.7      72.2      55.1       8      19     341     312    1012    0.00
    04/22/2014 22:30      18    20.1      6.45        62.4      72.2      55.1       7      18     345     335    1012    0.00
    04/22/2014 22:40      17    18.1      6.45        62.3      72.2      55.1       8      18     347     328    1012    0.00
    04/22/2014 22:50      18    17.3      6.45        62.2      72.2      55.1       9      24     347     335    1012    0.00
    04/22/2014 23:00      20    18.6      6.45        62.0      72.2      55.1       7      18     343       4    1012    0.00
    04/22/2014 23:10      21    20.9      6.45        61.8      72.2      55.1       9      27     353     339    1012    0.00
    04/22/2014 23:20      21    21.1      6.45        61.7      72.2      55.1       9      27     349     331    1012    0.00
    04/22/2014 23:30      21    21.6      6.45        61.4      72.2      55.1       7      21     346     339    1012    0.00
    04/22/2014 23:40      21    21.2      6.45        61.5      72.2      55.1       7      29     346     334    1012    0.00
    04/22/2014 23:50      22    22.0      6.45        61.3      72.2      55.1       6      19     342      -1    1012    0.00
    04/23/2014 00:00      23    22.7      6.45        61.0      72.2      55.1       8      22     346     326    1012    0.00
    04/23/2014 00:10      24    23.2      6.45        60.8      61.0      60.6       8      23     344     348    1012    0.00
    04/23/2014 00:20      24    23.5      6.45        60.7      61.0      60.4       8      22     342     312    1012    0.00
    04/23/2014 00:30      25    24.2      6.45        60.5      61.0      60.4       8      23     344     326    1012    0.00
    04/23/2014 00:40      25    24.7      6.45        60.5      61.0      60.3       9      20     342     330    1012    0.00
    04/23/2014 00:50      26    25.1      6.45        60.4      61.0      60.1       8      22     344     322    1012    0.00
    04/23/2014 01:00      26    25.2      6.45        60.3      61.0      60.1       7      19     352     346    1012    0.00
    04/23/2014 01:10      27    25.4      6.45        60.1      61.0      59.9       7      24     336     348    1012    0.00
    04/23/2014 01:20      27    25.7      6.45        59.9      61.0      59.7       7      21     330     329    1012    0.00
    04/23/2014 01:30      28    25.8      6.45        59.8      61.0      59.5       6      20     326     337    1012    0.00
    04/23/2014 01:40      27    25.9      6.45        59.4      61.0      59.1       5      16     309     317    1012    0.00
    04/23/2014 01:50      28    25.8      6.45        59.1      61.0      58.9       4      14     283     342    1012    0.00
    04/23/2014 02:00      28    25.7      6.45        58.9      61.0      58.6       3       8     301     243    1012    0.00
    04/23/2014 02:10      29    26.2      6.45        58.7      61.0      58.4       3      14     306     285    1012    0.00
    04/23/2014 02:20      29    26.3      6.45        58.4      61.0      58.1       3      10     312     335    1012    0.00
    04/23/2014 02:30      30    26.4      6.45        58.3      61.0      57.9       4      16     308     353    1012    0.00
    04/23/2014 02:40      30    26.5      6.45        58.1      61.0      57.9       5      20     312     343    1012    0.00
    04/23/2014 02:50      30    26.5      6.45        58.0      61.0      57.6       5      16     325     351    1012    0.00
    04/23/2014 03:00      31    26.8      6.45        57.6      61.0      57.3       4       9     285     296    1012    0.00
    04/23/2014 03:10      33    27.2      6.45        57.0      61.0      56.6       3       9     283     334    1012    0.00
    04/23/2014 03:20      34    27.8      6.45        56.5      61.0      56.2       1       7     292     234    1012    0.00
    04/23/2014 03:30      35    28.3      6.45        56.2      61.0      56.0       4      12     308     341    1012    0.00
    04/23/2014 03:40      34    28.8      6.45        56.4      61.0      56.0       5      14     325     331    1012    0.00
    04/23/2014 03:50      35    28.9      6.45        56.3      61.0      56.0       3      14     311     347    1012    0.00
    04/23/2014 04:00      36    28.9      6.45        55.9      61.0      55.5       2      11     308     335    1012    0.00
    04/23/2014 04:10      35    28.7      6.45        55.6      61.0      55.3       3       8     276     236    1012    0.00
    04/23/2014 04:20      33    27.8      6.45        56.4      61.0      55.3       4      11     315     323    1012    0.00
    04/23/2014 04:30      34    28.0      6.45        56.3      61.0      55.3       3       9     310     349    1012    0.00
    04/23/2014 04:40      35    28.1      6.45        55.7      61.0      55.3       3       8     297     233    1012    0.00
    04/23/2014 04:50      34    27.8      6.45        55.7      61.0      55.3       3       9     305     327    1012    0.00
    04/23/2014 05:00      34    27.7      6.45        55.7      61.0      55.3       2       6     298     335    1012    0.00
    04/23/2014 05:10      34    27.8      6.45        55.5      61.0      55.2       1       7     300     249    1012    0.00
    04/23/2014 05:20      34    27.7      6.45        55.1      61.0      54.8       1       9     263     229    1012    0.00
    04/23/2014 05:30      32    27.1      6.45        55.9      61.0      54.8       2       7     290     314    1012    0.00
    04/23/2014 05:40      30    26.6      6.45        56.7      61.0      54.8       4      11     293     231    1012    0.00
    04/23/2014 05:50      31    26.2      6.45        57.0      61.0      54.8       4      17     253     252    1012    0.00
    04/23/2014 06:00      31    26.7      6.45        56.8      61.0      54.8       1       4     157     166    1013    0.00
    04/23/2014 06:10      31    27.0      6.45        57.1      61.0      54.8       2       7      25      32    1013    0.00
    04/23/2014 06:20      30    27.7      6.45        57.7      61.0      54.8       1       8     299     287    1013    0.00
    04/23/2014 06:30      29    27.1      6.45        58.4      61.0      54.8       2      10     345       3    1013    0.00
    04/23/2014 06:40      29    27.0      6.45        59.0      61.0      54.8       2       8       3     258    1013    0.00
    04/23/2014 06:50      30    27.0      6.45        58.5      61.0      54.8       4      12      33     228    1013    0.00
    04/23/2014 07:00      29    26.6      6.45        58.6      61.0      54.8       3       9     345     340    1013    0.00
    04/23/2014 07:10      29    26.7      6.45        59.4      61.0      54.8       2       6     347     310    1013    0.00
    04/23/2014 07:20      28    26.3      6.45        59.9      61.0      54.8       2       5     357      44    1013    0.00
    04/23/2014 07:30      27    26.7      6.45        60.5      61.2      54.8       3       8     353     349    1013    0.00
    04/23/2014 07:40      25    26.0      6.45        61.3      61.6      54.8       4      13     339     339    1013    0.00
    04/23/2014 07:50      25    25.5      6.45        61.1      61.8      54.8       5      12     331     336    1013    0.00
    04/23/2014 08:00      25    25.7      6.45        62.1      62.9      54.8       3       9     319     336    1013    0.00
    04/23/2014 08:10      22    26.4      6.45        63.8      64.7      54.8       1       5     322     319    1013    0.00
    04/23/2014 08:20      20    24.2      6.45        64.7      65.0      54.8       2       8     346     346    1013    0.00
    04/23/2014 08:30      21    23.5      6.45        64.0      65.0      54.8       4       9     327     340    1013    0.00
    04/23/2014 08:40      21    23.4      6.45        64.6      65.1      54.8       4      10     345     326    1013    0.00
    04/23/2014 08:50      21    22.8      6.45        64.3      65.1      54.8       5      11     320     352    1013    0.00
    04/23/2014 09:00      21    24.1      6.45        65.0      66.0      54.8       4      10     335     350    1013    0.00
    04/23/2014 09:10      17    21.4      6.45        66.0      66.3      54.8       6      16     341     350    1013    0.00
    04/23/2014 09:20      16    20.9      6.45        66.9      67.4      54.8       6      17     346     348    1013    0.00
    04/23/2014 09:30      17    20.3      6.45        66.9      67.6      54.8       8      18     338     346    1013    0.00
    04/23/2014 09:40      16    20.8      6.45        68.0      68.4      54.8       5      16     345     330    1013    0.00
    04/23/2014 09:50      16    20.4      6.45        68.2      68.7      54.8       6      12     330     320    1013    0.00
    04/23/2014 10:00      15    20.5      6.45        68.8      69.1      54.8       5      12     337     326    1013    0.00
    04/23/2014 10:10      16    20.0      6.45        69.1      69.7      54.8       3      11     334     343    1013    0.00
    04/23/2014 10:20      16    20.8      6.45        69.9      70.8      54.8       2       9     337       3    1013    0.00
    04/23/2014 10:30      15    20.9      6.45        70.7      71.0      54.8       3       9     324     311    1013    0.00
    04/23/2014 10:40      15    21.1      6.45        71.3      71.6      54.8       4       9     322     265    1013    0.00
    04/23/2014 10:50      15    20.9      6.45        72.1      72.7      54.8       4      11     319     355    1013    0.00
    04/23/2014 11:00      13    21.5      6.45        73.2      73.9      54.8       4      10     317     305    1013    0.00
    04/23/2014 11:10      15    20.6      6.45        73.3      73.9      54.8       4      13     341     335    1013    0.00
    04/23/2014 11:20      13    20.6      6.45        74.2      74.7      54.8       3       9     324     319    1012    0.00
    04/23/2014 11:30      14    20.6      6.45        74.5      75.0      54.8       5      12     324     310    1012    0.00
    04/23/2014 11:40      12    20.5      6.45        74.6      75.1      54.8       4      14     333     323    1012    0.00
    04/23/2014 11:50      10    19.0      6.45        75.3      76.0      54.8       3       8     337     351    1012    0.00
    04/23/2014 12:00      11    16.7      6.45        76.0      76.3      54.8       4       8      47      -1    1012    0.00
    04/23/2014 12:10      10    15.5      6.45        76.2      77.1      54.8       3       7     354     337    1012    0.00
    04/23/2014 12:20      23    25.2      6.45        76.2      77.2      54.8       4      12      79     141    1012    0.00
    04/23/2014 12:30      23    33.3      6.45        74.3      77.2      54.8       5      10     128     122    1012    0.00
    04/23/2014 12:40      22    32.5      6.45        74.6      77.2      54.8       5      11     121     100    1012    0.00
    04/23/2014 12:50      22    32.8      6.45        74.9      77.2      54.8       5       9     128     155    1012    0.00
    04/23/2014 13:00      17    32.0      6.45        74.7      77.2      54.8       6      15     135     156    1012    0.00
    04/23/2014 13:10      22    33.6      6.45        74.6      77.2      54.8       5      10     121     136    1012    0.00
    04/23/2014 13:20      24    32.3      6.45        74.5      77.2      54.8       5      11     116     142    1012    0.00
    04/23/2014 13:30      20    33.0      6.45        74.0      77.2      54.8       5      10     122     150    1012    0.00
    04/23/2014 13:40      18    32.6      6.45        74.3      77.2      54.8       4       8     143     179    1012    0.00
    04/23/2014 13:50      20    31.4      6.45        75.3      77.2      54.8       4       9      91      86    1011    0.00
    04/23/2014 14:00      22    33.2      6.45        75.3      77.2      54.8       5       9     117     168    1011    0.00
    04/23/2014 14:10      21    33.9      6.45        75.3      77.2      54.8       3       9     156     203    1011    0.00
    04/23/2014 14:20      20    33.0      6.45        75.7      77.2      54.8       5      11     106      83    1011    0.00
    04/23/2014 14:30      23    33.0      6.45        75.1      77.2      54.8       4       9     116      93    1011    0.00
    04/23/2014 14:40      21    33.7      6.45        75.5      77.2      54.8       4       9     121     150    1011    0.00
    04/23/2014 14:50      22    33.6      6.45        75.3      77.2      54.8       3       8      91      93    1011    0.00
    04/23/2014 15:00      22    34.7      6.45        75.4      77.2      54.8       4       9     133     139    1011    0.00
    04/23/2014 15:10      24    34.8      6.45        74.5      77.2      54.8       3       8     140     149    1011    0.00
    04/23/2014 15:20      25    35.4      6.45        73.7      77.2      54.8       4       9     168     179    1011    0.00
    04/23/2014 15:30      23    34.3      6.45        74.3      77.2      54.8       4       9     152     183    1011    0.00
    04/23/2014 15:40      21    32.8      6.45        74.5      77.2      54.8       2       6     288     315    1011    0.00
    04/23/2014 15:50      17    31.0      6.45        75.3      77.2      54.8       2       5     215     184    1011    0.00
    04/23/2014 16:00      22    32.7      6.45        74.5      77.2      54.8       2       5      80      96    1011    0.00
    04/23/2014 16:10      23    33.9      6.45        73.5      77.2      54.8       2       7     108      90    1011    0.00
    04/23/2014 16:20      23    33.3      6.45        73.1      77.2      54.8       3       7      70      97    1011    0.00
    04/23/2014 16:30      24    33.5      6.45        73.1      77.2      54.8       4       8      95      76    1011    0.00
    04/23/2014 16:40      24    33.8      6.45        72.9      77.2      54.8       3       7     106     105    1011    0.00
    04/23/2014 16:50      24    33.5      6.45        71.9      77.2      54.8       4       7     128     136    1011    0.00
    04/23/2014 17:00      24    33.3      6.45        71.7      77.2      54.8       4       7      98      93    1011    0.00
    04/23/2014 17:10      25    33.4      6.45        71.5      77.2      54.8       3       6     112     134    1011    0.00
    04/23/2014 17:20      25    33.3      6.45        71.0      77.2      54.8       3       8     114     109    1011    0.00
    04/23/2014 17:30      25    33.3      6.45        70.4      77.2      54.8       3       7     109     131    1011    0.00
    04/23/2014 17:40      25    33.1      6.45        70.2      77.2      54.8       3       6     115      67    1011    0.00
    04/23/2014 17:50      25    32.9      6.45        69.8      77.2      54.8       3       7     101      99    1011    0.00
    04/23/2014 18:00      26    33.1      6.45        69.7      77.2      54.8       2       5     107      80    1011    0.00
    04/23/2014 18:10      26    33.1      6.45        69.5      77.2      54.8       3       5      75      79    1011    0.00
    04/23/2014 18:20      27    33.2      6.45        69.1      77.2      54.8       2       4      76      57    1011    0.00
    04/23/2014 18:30      27    33.5      6.45        68.6      77.2      54.8       2       5      72      60    1011    0.00
    04/23/2014 18:40      28    33.4      6.45        68.2      77.2      54.8       1       5      60      54    1011    0.00
    04/23/2014 18:50      28    33.4      6.45        67.7      77.2      54.8       2       5      68      68    1011    0.00
    04/23/2014 19:00      28    33.2      6.45        67.3      77.2      54.8       2       4      68      60    1012    0.00
    04/23/2014 19:10      28    32.8      6.45        67.0      77.2      54.8       1       4      60      63    1012    0.00
    04/23/2014 19:20      24    31.4      6.45        67.0      77.2      54.8       2       6      60      54    1012    0.00
    04/23/2014 19:30      22    28.4      6.45        67.1      77.2      54.8       1       6     354     337    1012    0.00
    04/23/2014 19:40      22    27.1      6.45        67.1      77.2      54.8       2      10     349     337    1012    0.00
    04/23/2014 19:50      21    26.2      6.45        66.9      77.2      54.8       2       8     337     335    1012    0.00
    04/23/2014 20:00      20    25.1      6.45        66.7      77.2      54.8       3      10     338     300    1012    0.00
    04/23/2014 20:10      17    21.9      6.45        66.6      77.2      54.8       4      12     342     342    1012    0.00
    04/23/2014 20:20      17    21.0      6.45        66.6      77.2      54.8       3      11     340     352    1012    0.00
    04/23/2014 20:30      16    20.5      6.45        66.6      77.2      54.8       3       9     326     355    1012    0.00
    04/23/2014 20:40      16    19.7      6.45        66.8      77.2      54.8       4      10     319     342    1012    0.00
    04/23/2014 20:50      17    19.7      6.45        66.7      77.2      54.8       2       7     282     302    1012    0.00
    04/23/2014 21:00      16    18.4      6.45        65.8      77.2      54.8       1       3     359      80    1012    0.00
    04/23/2014 21:10      16    18.4      6.45        65.5      77.2      54.8       1       4     149     152    1012    0.00
    04/23/2014 21:20      16    17.6      6.45        64.8      77.2      54.8       0       1     357      -1    1012    0.00
    04/23/2014 21:30      18    18.9      6.45        64.4      77.2      54.8       1       4     217     251    1012    0.00
    04/23/2014 21:40      30    25.8      6.45        63.6      77.2      54.8       1       6     265     259    1013    0.00
    04/23/2014 21:50      37    34.6      6.45        62.3      77.2      54.8       1       4     243     247    1013    0.00
    04/23/2014 22:00      36    35.4      6.45        61.6      77.2      54.8       1       3     197     188    1013    0.00
    04/23/2014 22:10      35    34.2      6.45        62.0      77.2      54.8       1       3      34      33    1013    0.00
    04/23/2014 22:20      36    34.1      6.45        61.9      77.2      54.8       1       3     223     200    1013    0.00
    04/23/2014 22:30      36    33.6      6.45        61.4      77.2      54.8       0       0       0     333    1013    0.00
    04/23/2014 22:40      35    34.2      6.45        61.0      77.2      54.8       1       3      94     167    1013    0.00
    04/23/2014 22:50      40    35.1      6.45        60.6      77.2      54.8       0       3     310     348    1013    0.00
    04/23/2014 23:00      37    34.8      6.45        59.9      77.2      54.8       0       2     342     336    1013    0.00
    04/23/2014 23:10      40    33.4      6.45        60.1      77.2      54.8       0       1      60      61    1013    0.00
    04/23/2014 23:20      34    33.6      6.45        59.5      77.2      54.8       0       3     272     319    1013    0.00
    04/23/2014 23:30      28    29.9      6.45        59.6      77.2      54.8       1       4     278     309    1013    0.00
    04/23/2014 23:40      34    29.2      6.45        60.2      77.2      54.8       1       6     279     345    1013    0.00
    04/23/2014 23:50      33    31.0      6.45        59.6      77.2      54.8       1       4     267     257    1013    0.00
    04/24/2014 00:00      38    31.1      6.45        59.2      77.2      54.8       1       6     289     349    1013    0.00
    04/24/2014 00:10      40    33.8      6.45        58.9      59.2      58.4       2       8     282     327    1013    0.00
    04/24/2014 00:20      39    33.9      6.45        58.5      59.2      58.3       2       4     296     288    1013    0.00
    04/24/2014 00:30      43    34.6      6.45        58.0      59.2      57.5       1       4     288     304    1013    0.00
    04/24/2014 00:40      43    35.0      6.45        57.2      59.2      57.0       0       3     293     248    1013    0.00
    04/24/2014 00:50      43    34.8      6.45        57.0      59.2      56.7       0       3     276     247    1012    0.00
    04/24/2014 01:00      44    35.2      6.45        56.7      59.2      56.3       0       3     294     282    1012    0.00
    04/24/2014 01:10      42    34.3      6.45        56.5      59.2      56.2       0       0       0     257    1012    0.00
    04/24/2014 01:20      45    34.8      6.45        56.1      59.2      55.5       0       1     301     304    1012    0.00
    04/24/2014 01:30      44    34.1      6.45        55.4      59.2      55.2       0       0       0     205    1012    0.00
    04/24/2014 01:40      45    34.3      6.45        55.3      59.2      55.1       0       0       0       0    1012    0.00
    04/24/2014 01:50      45    34.6      6.45        55.6      59.2      55.1       0       2     333     339    1012    0.00
    04/24/2014 02:00      46    34.8      6.45        55.4      59.2      54.9       0       2     353     345    1012    0.00
    04/24/2014 02:10      46    34.8      6.45        55.1      59.2      54.9       0       1     314     306    1012    0.00
    04/24/2014 02:20      48    34.9      6.45        55.2      59.2      54.9       0       2     330     333    1012    0.00
    04/24/2014 02:30      49    35.5      6.45        54.6      59.2      54.3       1       3     104     114    1012    0.00